sensor_id;sensor_type;location;lat;lon;timestamp;pressure;altitude;pressure_sealevel;temperature;humidity
47154;BME280;32907;41.412;2.164;2023-05-25T00:02:13;100083.06;;;22.49;44.64
47154;BME280;32907;41.412;2.164;2023-05-25T00:04:42;100357.34;;;24.33;44.10
47154;BME280;32907;41.412;2.164;2023-05-25T00:07:15;100170.19;;;23.08;44.15
47154;BME280;32907;41.412;2.164;2023-05-25T00:09:44;100341.84;;;24.28;43.98
47154;BME280;32907;41.412;2.164;2023-05-25T00:12:13;100160.69;;;22.97;44.07
47154;BME280;32907;41.412;2.164;2023-05-25T00:14:45;100378.28;;;24.38;43.92
47154;BME280;32907;41.412;2.164;2023-05-25T00:17:14;100173.25;;;23.15;44.16
47154;BME280;32907;41.412;2.164;2023-05-25T00:19:47;100342.66;;;24.38;44.36
47154;BME280;32907;41.412;2.164;2023-05-25T00:22:15;100090.81;;;22.65;44.02
47154;BME280;32907;41.412;2.164;2023-05-25T00:24:48;100090.16;;;22.59;44.18
47154;BME280;32907;41.412;2.164;2023-05-25T00:27:17;100355.09;;;24.35;44.15
47154;BME280;32907;41.412;2.164;2023-05-25T00:29:48;100356.06;;;24.39;43.61
47154;BME280;32907;41.412;2.164;2023-05-25T00:32:19;100091.94;;;22.64;43.75
47154;BME280;32907;41.412;2.164;2023-05-25T00:34:57;100174.22;;;23.28;43.88
47154;BME280;32907;41.412;2.164;2023-05-25T00:37:28;100327.69;;;24.26;43.72
47154;BME280;32907;41.412;2.164;2023-05-25T00:39:57;100204.47;;;23.31;43.44
47154;BME280;32907;41.412;2.164;2023-05-25T00:42:27;100194.66;;;23.48;43.33
47154;BME280;32907;41.412;2.164;2023-05-25T00:44:58;100100.53;;;22.88;43.61
47154;BME280;32907;41.412;2.164;2023-05-25T00:47:26;100090.03;;;22.73;43.22
47154;BME280;32907;41.412;2.164;2023-05-25T00:49:55;100083.28;;;22.79;44.03
47154;BME280;32907;41.412;2.164;2023-05-25T00:52:25;100336.88;;;24.39;44.01
47154;BME280;32907;41.412;2.164;2023-05-25T00:54:58;100040.63;;;22.43;43.69
47154;BME280;32907;41.412;2.164;2023-05-25T00:57:34;100237.34;;;23.75;43.53
47154;BME280;32907;41.412;2.164;2023-05-25T01:00:10;100126.59;;;22.94;43.99
47154;BME280;32907;41.412;2.164;2023-05-25T01:02:41;100284.53;;;23.89;43.88
47154;BME280;32907;41.412;2.164;2023-05-25T01:05:11;100120.16;;;22.90;43.89
47154;BME280;32907;41.412;2.164;2023-05-25T01:07:43;100251.03;;;23.75;43.33
47154;BME280;32907;41.412;2.164;2023-05-25T01:10:13;100360.91;;;24.34;43.38
47154;BME280;32907;41.412;2.164;2023-05-25T01:12:49;100221.38;;;23.59;43.33
47154;BME280;32907;41.412;2.164;2023-05-25T01:15:21;100194.81;;;23.34;42.99
47154;BME280;32907;41.412;2.164;2023-05-25T01:17:50;100354.75;;;24.37;43.12
47154;BME280;32907;41.412;2.164;2023-05-25T01:20:21;100103.22;;;22.71;43.22
47154;BME280;32907;41.412;2.164;2023-05-25T01:22:56;100179.19;;;23.26;42.94
47154;BME280;32907;41.412;2.164;2023-05-25T01:25:42;100058.47;;;22.49;42.52
47154;BME280;32907;41.412;2.164;2023-05-25T01:28:17;100327.69;;;24.26;42.29
47154;BME280;32907;41.412;2.164;2023-05-25T01:30:52;100063.94;;;22.49;42.46
47154;BME280;32907;41.412;2.164;2023-05-25T01:33:23;100059.31;;;22.58;42.35
47154;BME280;32907;41.412;2.164;2023-05-25T01:35:52;100160.69;;;23.05;42.67
47154;BME280;32907;41.412;2.164;2023-05-25T01:38:21;100144.28;;;22.97;42.61
47154;BME280;32907;41.412;2.164;2023-05-25T01:40:52;100073.75;;;22.59;42.07
47154;BME280;32907;41.412;2.164;2023-05-25T01:43:22;100215.59;;;23.52;41.71
47154;BME280;32907;41.412;2.164;2023-05-25T01:45:58;100332.84;;;24.11;41.54
47154;BME280;32907;41.412;2.164;2023-05-25T01:48:46;100166.81;;;23.20;41.70
47154;BME280;32907;41.412;2.164;2023-05-25T01:54:18;100114.63;;;22.81;42.26
47154;BME280;32907;41.412;2.164;2023-05-25T01:56:51;100327.22;;;24.07;42.57
47154;BME280;32907;41.412;2.164;2023-05-25T01:59:24;100245.72;;;23.78;42.25
47154;BME280;32907;41.412;2.164;2023-05-25T02:01:58;100346.88;;;24.35;42.67
47154;BME280;32907;41.412;2.164;2023-05-25T02:04:28;100254.25;;;23.68;42.51
47154;BME280;32907;41.412;2.164;2023-05-25T02:06:59;100326.53;;;24.27;42.82
47154;BME280;32907;41.412;2.164;2023-05-25T02:09:28;100171.97;;;23.30;42.44
47154;BME280;32907;41.412;2.164;2023-05-25T02:12:06;100184.38;;;23.36;42.01
47154;BME280;32907;41.412;2.164;2023-05-25T02:14:36;100269.22;;;23.70;42.31
47154;BME280;32907;41.412;2.164;2023-05-25T02:17:05;100328.81;;;24.25;41.96
47154;BME280;32907;41.412;2.164;2023-05-25T02:19:40;100333.28;;;24.30;41.61
47154;BME280;32907;41.412;2.164;2023-05-25T02:22:09;100181.78;;;23.22;42.01
47154;BME280;32907;41.412;2.164;2023-05-25T02:24:41;100339.63;;;24.31;41.76
47154;BME280;32907;41.412;2.164;2023-05-25T02:27:10;100058.81;;;22.48;41.88
47154;BME280;32907;41.412;2.164;2023-05-25T02:29:40;100243.28;;;23.59;41.46
47154;BME280;32907;41.412;2.164;2023-05-25T02:32:13;100129.63;;;23.01;41.70
47154;BME280;32907;41.412;2.164;2023-05-25T02:34:42;100083.75;;;22.64;41.50
47154;BME280;32907;41.412;2.164;2023-05-25T02:37:10;100087.44;;;22.68;41.48
47154;BME280;32907;41.412;2.164;2023-05-25T02:39:39;100025.19;;;22.30;41.67
47154;BME280;32907;41.412;2.164;2023-05-25T02:42:08;100123.84;;;22.94;41.93
47154;BME280;32907;41.412;2.164;2023-05-25T02:44:36;100126.75;;;22.89;42.00
47154;BME280;32907;41.412;2.164;2023-05-25T02:47:07;100028.09;;;22.33;41.98
47154;BME280;32907;41.412;2.164;2023-05-25T02:49:35;100308.66;;;24.21;42.75
47154;BME280;32907;41.412;2.164;2023-05-25T02:52:06;100233.00;;;23.65;43.00
47154;BME280;32907;41.412;2.164;2023-05-25T02:54:35;100159.56;;;23.24;44.09
47154;BME280;32907;41.412;2.164;2023-05-25T02:57:05;100075.22;;;22.65;44.41
47154;BME280;32907;41.412;2.164;2023-05-25T02:59:40;100229.91;;;23.58;44.99
47154;BME280;32907;41.412;2.164;2023-05-25T03:02:13;100065.75;;;22.54;44.97
47154;BME280;32907;41.412;2.164;2023-05-25T03:04:51;100105.97;;;22.79;45.07
47154;BME280;32907;41.412;2.164;2023-05-25T03:08:04;100164.88;;;23.11;45.37
47154;BME280;32907;41.412;2.164;2023-05-25T03:10:33;100076.00;;;22.48;45.39
47154;BME280;32907;41.412;2.164;2023-05-25T03:13:01;100054.28;;;22.34;45.19
47154;BME280;32907;41.412;2.164;2023-05-25T03:15:35;100213.47;;;23.49;45.20
47154;BME280;32907;41.412;2.164;2023-05-25T03:18:09;100244.09;;;23.51;44.88
47154;BME280;32907;41.412;2.164;2023-05-25T03:20:51;100044.97;;;22.44;45.21
47154;BME280;32907;41.412;2.164;2023-05-25T03:23:23;100135.28;;;23.05;45.38
47154;BME280;32907;41.412;2.164;2023-05-25T03:25:59;100122.22;;;22.93;45.70
47154;BME280;32907;41.412;2.164;2023-05-25T03:28:28;100052.53;;;22.47;45.85
47154;BME280;32907;41.412;2.164;2023-05-25T03:30:56;100135.75;;;22.98;45.93
47154;BME280;32907;41.412;2.164;2023-05-25T03:33:28;100232.03;;;23.69;45.75
47154;BME280;32907;41.412;2.164;2023-05-25T03:36:00;100011.66;;;22.16;45.43
47154;BME280;32907;41.412;2.164;2023-05-25T03:38:31;100162.63;;;23.05;45.52
47154;BME280;32907;41.412;2.164;2023-05-25T03:41:07;100086.59;;;22.50;45.62
47154;BME280;32907;41.412;2.164;2023-05-25T03:43:36;100303.38;;;23.99;45.95
47154;BME280;32907;41.412;2.164;2023-05-25T03:46:09;100052.34;;;22.35;45.61
47154;BME280;32907;41.412;2.164;2023-05-25T03:48:43;100222.47;;;23.24;45.75
47154;BME280;32907;41.412;2.164;2023-05-25T03:51:14;100139.28;;;22.90;45.77
47154;BME280;32907;41.412;2.164;2023-05-25T03:53:45;100079.69;;;22.52;46.04
47154;BME280;32907;41.412;2.164;2023-05-25T03:56:19;100128.78;;;22.75;46.10
47154;BME280;32907;41.412;2.164;2023-05-25T03:58:48;100078.38;;;22.32;46.14
47154;BME280;32907;41.412;2.164;2023-05-25T04:01:19;100165.66;;;22.86;46.52
47154;BME280;32907;41.412;2.164;2023-05-25T04:04:03;100052.97;;;22.23;46.79
47154;BME280;32907;41.412;2.164;2023-05-25T04:06:32;100090.00;;;22.55;47.10
47154;BME280;32907;41.412;2.164;2023-05-25T04:09:05;100051.03;;;22.24;47.70
47154;BME280;32907;41.412;2.164;2023-05-25T04:11:38;100149.41;;;22.89;48.08
47154;BME280;32907;41.412;2.164;2023-05-25T04:14:11;100147.56;;;22.68;48.42
47154;BME280;32907;41.412;2.164;2023-05-25T04:16:42;100146.94;;;22.71;48.76
47154;BME280;32907;41.412;2.164;2023-05-25T04:19:14;100212.03;;;23.26;48.23
47154;BME280;32907;41.412;2.164;2023-05-25T04:21:43;100118.41;;;22.46;48.09
47154;BME280;32907;41.412;2.164;2023-05-25T04:24:15;100214.44;;;23.19;48.23
47154;BME280;32907;41.412;2.164;2023-05-25T04:26:53;100118.72;;;22.44;49.08
47154;BME280;32907;41.412;2.164;2023-05-25T04:29:24;100208.47;;;23.16;49.20
47154;BME280;32907;41.412;2.164;2023-05-25T04:32:22;100112.00;;;22.50;49.21
47154;BME280;32907;41.412;2.164;2023-05-25T04:35:13;100208.13;;;23.01;49.20
47154;BME280;32907;41.412;2.164;2023-05-25T04:37:48;100182.06;;;22.86;49.29
47154;BME280;32907;41.412;2.164;2023-05-25T04:40:19;100311.44;;;23.78;50.09
47154;BME280;32907;41.412;2.164;2023-05-25T04:42:55;100121.47;;;22.44;50.19
47154;BME280;32907;41.412;2.164;2023-05-25T04:45:24;100327.38;;;23.67;50.01
47154;BME280;32907;41.412;2.164;2023-05-25T04:47:58;100340.56;;;23.65;50.55
47154;BME280;32907;41.412;2.164;2023-05-25T04:50:29;100177.59;;;22.50;50.60
47154;BME280;32907;41.412;2.164;2023-05-25T04:52:58;100222.16;;;22.68;50.31
47154;BME280;32907;41.412;2.164;2023-05-25T04:55:27;100110.16;;;21.97;50.62
47154;BME280;32907;41.412;2.164;2023-05-25T04:57:59;100122.09;;;22.01;50.80
47154;BME280;32907;41.412;2.164;2023-05-25T05:00:29;100309.66;;;23.08;51.47
47154;BME280;32907;41.412;2.164;2023-05-25T05:02:59;100149.94;;;22.12;51.06
47154;BME280;32907;41.412;2.164;2023-05-25T05:05:29;100251.78;;;22.75;51.39
47154;BME280;32907;41.412;2.164;2023-05-25T05:08:04;100298.91;;;23.11;51.89
47154;BME280;32907;41.412;2.164;2023-05-25T05:10:33;100130.59;;;22.00;51.35
47154;BME280;32907;41.412;2.164;2023-05-25T05:13:04;100327.75;;;23.26;51.61
47154;BME280;32907;41.412;2.164;2023-05-25T05:15:36;100169.84;;;22.13;51.77
47154;BME280;32907;41.412;2.164;2023-05-25T05:18:05;100201.78;;;22.34;51.68
47154;BME280;32907;41.412;2.164;2023-05-25T05:20:38;100420.44;;;23.67;51.66
47154;BME280;32907;41.412;2.164;2023-05-25T05:23:09;100150.50;;;22.00;52.00
47154;BME280;32907;41.412;2.164;2023-05-25T05:25:42;100109.25;;;21.71;51.70
47154;BME280;32907;41.412;2.164;2023-05-25T05:28:14;100375.25;;;23.39;51.56
47154;BME280;32907;41.412;2.164;2023-05-25T05:30:43;100414.63;;;23.60;51.38
47154;BME280;32907;41.412;2.164;2023-05-25T05:33:14;100193.47;;;22.09;51.71
47154;BME280;32907;41.412;2.164;2023-05-25T05:35:46;100422.69;;;23.65;51.38
47154;BME280;32907;41.412;2.164;2023-05-25T05:38:22;100383.75;;;23.29;51.39
47154;BME280;32907;41.412;2.164;2023-05-25T05:40:53;100223.59;;;22.26;51.46
47154;BME280;32907;41.412;2.164;2023-05-25T05:43:25;100437.50;;;23.64;51.56
47154;BME280;32907;41.412;2.164;2023-05-25T05:45:55;100445.72;;;23.64;51.70
47154;BME280;32907;41.412;2.164;2023-05-25T05:48:24;100289.97;;;22.57;51.58
47154;BME280;32907;41.412;2.164;2023-05-25T05:50:57;100296.16;;;22.72;51.03
47154;BME280;32907;41.412;2.164;2023-05-25T05:53:27;100200.47;;;22.01;51.02
47154;BME280;32907;41.412;2.164;2023-05-25T05:55:57;100220.25;;;22.06;51.36
47154;BME280;32907;41.412;2.164;2023-05-25T05:58:29;100308.34;;;22.66;51.16
47154;BME280;32907;41.412;2.164;2023-05-25T06:01:00;100452.31;;;23.63;50.85
47154;BME280;32907;41.412;2.164;2023-05-25T06:03:37;100202.78;;;22.08;51.17
47154;BME280;32907;41.412;2.164;2023-05-25T06:06:18;100263.41;;;22.49;50.84
47154;BME280;32907;41.412;2.164;2023-05-25T06:08:49;100171.53;;;22.00;50.95
47154;BME280;32907;41.412;2.164;2023-05-25T06:11:48;100271.69;;;22.67;50.93
47154;BME280;32907;41.412;2.164;2023-05-25T06:14:17;100190.09;;;22.12;50.90
47154;BME280;32907;41.412;2.164;2023-05-25T06:16:49;100421.06;;;23.64;50.94
47154;BME280;32907;41.412;2.164;2023-05-25T06:19:18;100336.19;;;23.07;50.77
47154;BME280;32907;41.412;2.164;2023-05-25T06:21:47;100336.03;;;23.04;51.01
47154;BME280;32907;41.412;2.164;2023-05-25T06:24:21;100309.16;;;22.97;50.93
47154;BME280;32907;41.412;2.164;2023-05-25T06:26:49;100410.25;;;23.59;51.00
47154;BME280;32907;41.412;2.164;2023-05-25T06:29:19;100181.28;;;22.15;50.99
47154;BME280;32907;41.412;2.164;2023-05-25T06:31:51;100426.88;;;23.63;51.60
47154;BME280;32907;41.412;2.164;2023-05-25T06:34:19;100266.06;;;22.63;52.53
47154;BME280;32907;41.412;2.164;2023-05-25T06:36:47;100401.84;;;23.47;52.91
47154;BME280;32907;41.412;2.164;2023-05-25T06:39:15;100421.97;;;23.51;53.89
47154;BME280;32907;41.412;2.164;2023-05-25T06:41:44;100385.97;;;23.18;53.77
47154;BME280;32907;41.412;2.164;2023-05-25T06:44:15;100363.84;;;22.97;53.66
47154;BME280;32907;41.412;2.164;2023-05-25T06:46:47;100432.38;;;23.40;54.19
47154;BME280;32907;41.412;2.164;2023-05-25T06:49:15;100405.97;;;23.27;53.93
47154;BME280;32907;41.412;2.164;2023-05-25T06:51:44;100435.81;;;23.46;54.00
47154;BME280;32907;41.412;2.164;2023-05-25T06:54:13;100426.91;;;23.40;54.34
47154;BME280;32907;41.412;2.164;2023-05-25T06:56:41;100421.25;;;23.28;54.53
47154;BME280;32907;41.412;2.164;2023-05-25T06:59:09;100441.28;;;23.46;54.32
47154;BME280;32907;41.412;2.164;2023-05-25T07:01:37;100379.97;;;23.07;54.52
47154;BME280;32907;41.412;2.164;2023-05-25T07:04:05;100429.03;;;23.43;55.24
47154;BME280;32907;41.412;2.164;2023-05-25T07:06:33;100427.09;;;23.44;53.60
47154;BME280;32907;41.412;2.164;2023-05-25T07:09:02;100418.22;;;23.38;54.66
47154;BME280;32907;41.412;2.164;2023-05-25T07:11:30;100436.97;;;23.54;54.46
47154;BME280;32907;41.412;2.164;2023-05-25T07:13:58;100436.97;;;23.54;54.63
47154;BME280;32907;41.412;2.164;2023-05-25T07:16:25;100447.25;;;23.57;54.55
47154;BME280;32907;41.412;2.164;2023-05-25T07:18:53;100442.41;;;23.45;54.31
47154;BME280;32907;41.412;2.164;2023-05-25T07:21:23;100429.47;;;23.28;54.67
47154;BME280;32907;41.412;2.164;2023-05-25T07:23:51;100437.34;;;23.30;54.46
47154;BME280;32907;41.412;2.164;2023-05-25T07:26:19;100458.69;;;23.50;54.36
47154;BME280;32907;41.412;2.164;2023-05-25T07:28:49;100461.91;;;23.52;54.55
47154;BME280;32907;41.412;2.164;2023-05-25T07:31:17;100454.31;;;23.49;54.87
47154;BME280;32907;41.412;2.164;2023-05-25T07:33:45;100434.97;;;23.37;54.52
47154;BME280;32907;41.412;2.164;2023-05-25T07:36:14;100461.75;;;23.57;54.68
47154;BME280;32907;41.412;2.164;2023-05-25T07:38:43;100463.09;;;23.60;54.19
47154;BME280;32907;41.412;2.164;2023-05-25T07:41:11;100427.56;;;23.37;53.88
47154;BME280;32907;41.412;2.164;2023-05-25T07:43:40;100447.09;;;23.53;53.90
47154;BME280;32907;41.412;2.164;2023-05-25T07:46:07;100434.47;;;23.35;53.75
47154;BME280;32907;41.412;2.164;2023-05-25T07:48:35;100451.56;;;23.49;53.62
47154;BME280;32907;41.412;2.164;2023-05-25T07:51:04;100446.88;;;23.41;53.75
47154;BME280;32907;41.412;2.164;2023-05-25T07:53:32;100464.47;;;23.57;53.99
47154;BME280;32907;41.412;2.164;2023-05-25T07:56:01;100454.97;;;23.46;53.72
47154;BME280;32907;41.412;2.164;2023-05-25T07:58:29;100470.59;;;23.54;53.71
47154;BME280;32907;41.412;2.164;2023-05-25T08:00:57;100477.69;;;23.55;53.73
47154;BME280;32907;41.412;2.164;2023-05-25T08:03:25;100431.84;;;23.21;53.32
47154;BME280;32907;41.412;2.164;2023-05-25T08:06:13;100482.19;;;23.51;53.56
47154;BME280;32907;41.412;2.164;2023-05-25T08:08:42;100475.25;;;23.45;52.94
47154;BME280;32907;41.412;2.164;2023-05-25T08:11:11;100464.59;;;23.35;53.43
47154;BME280;32907;41.412;2.164;2023-05-25T08:13:39;100487.16;;;23.49;53.03
47154;BME280;32907;41.412;2.164;2023-05-25T08:16:07;100490.88;;;23.53;52.96
47154;BME280;32907;41.412;2.164;2023-05-25T08:18:36;100495.56;;;23.53;52.67
47154;BME280;32907;41.412;2.164;2023-05-25T08:21:04;100422.91;;;23.07;52.48
47154;BME280;32907;41.412;2.164;2023-05-25T08:23:32;100471.78;;;23.31;52.66
47154;BME280;32907;41.412;2.164;2023-05-25T08:26:00;100402.75;;;22.94;52.65
47154;BME280;32907;41.412;2.164;2023-05-25T08:28:38;100489.72;;;23.45;52.65
47154;BME280;32907;41.412;2.164;2023-05-25T08:31:06;100492.94;;;23.48;52.47
47154;BME280;32907;41.412;2.164;2023-05-25T08:33:34;100511.53;;;23.59;52.47
47154;BME280;32907;41.412;2.164;2023-05-25T08:36:02;100458.38;;;23.21;52.34
47154;BME280;32907;41.412;2.164;2023-05-25T08:38:30;100468.38;;;23.25;52.44
47154;BME280;32907;41.412;2.164;2023-05-25T08:41:03;100522.28;;;23.56;52.32
47154;BME280;32907;41.412;2.164;2023-05-25T08:43:33;100493.03;;;23.34;52.06
47154;BME280;32907;41.412;2.164;2023-05-25T08:46:04;100524.88;;;23.52;52.35
47154;BME280;32907;41.412;2.164;2023-05-25T08:48:34;100530.34;;;23.52;52.39
47154;BME280;32907;41.412;2.164;2023-05-25T08:51:10;100527.91;;;23.51;52.44
47154;BME280;32907;41.412;2.164;2023-05-25T08:53:40;100532.28;;;23.52;52.58
47154;BME280;32907;41.412;2.164;2023-05-25T08:56:31;100507.25;;;23.36;52.33
47154;BME280;32907;41.412;2.164;2023-05-25T09:02:20;100538.88;;;23.51;52.00
47154;BME280;32907;41.412;2.164;2023-05-25T09:04:49;100543.03;;;23.48;51.87
47154;BME280;32907;41.412;2.164;2023-05-25T09:07:17;100486.03;;;23.10;51.87
47154;BME280;32907;41.412;2.164;2023-05-25T09:09:46;100515.56;;;23.31;51.50
47154;BME280;32907;41.412;2.164;2023-05-25T09:12:15;100533.69;;;23.49;51.93
47154;BME280;32907;41.412;2.164;2023-05-25T09:14:43;100478.78;;;23.14;51.72
47154;BME280;32907;41.412;2.164;2023-05-25T09:17:15;100509.66;;;23.37;51.47
47154;BME280;32907;41.412;2.164;2023-05-25T09:19:45;100523.53;;;23.50;51.53
47154;BME280;32907;41.412;2.164;2023-05-25T09:22:13;100472.38;;;23.19;51.31
47154;BME280;32907;41.412;2.164;2023-05-25T09:24:43;100498.03;;;23.32;51.32
47154;BME280;32907;41.412;2.164;2023-05-25T09:27:16;100538.91;;;23.59;51.75
47154;BME280;32907;41.412;2.164;2023-05-25T09:29:48;100532.34;;;23.60;51.19
47154;BME280;32907;41.412;2.164;2023-05-25T09:32:17;100525.72;;;23.61;50.98
47154;BME280;32907;41.412;2.164;2023-05-25T09:34:46;100498.88;;;23.41;52.01
47154;BME280;32907;41.412;2.164;2023-05-25T09:37:15;100531.09;;;23.66;51.56
47154;BME280;32907;41.412;2.164;2023-05-25T09:39:46;100529.94;;;23.67;51.16
47154;BME280;32907;41.412;2.164;2023-05-25T09:42:14;100507.31;;;23.53;51.36
47154;BME280;32907;41.412;2.164;2023-05-25T09:44:42;100520.50;;;23.51;51.35
47154;BME280;32907;41.412;2.164;2023-05-25T09:47:12;100537.03;;;23.68;51.79
47154;BME280;32907;41.412;2.164;2023-05-25T09:49:41;100539.91;;;23.63;51.94
47154;BME280;32907;41.412;2.164;2023-05-25T09:52:11;100473.69;;;23.22;52.17
47154;BME280;32907;41.412;2.164;2023-05-25T09:54:42;100558.91;;;23.60;52.03
47154;BME280;32907;41.412;2.164;2023-05-25T09:57:10;100559.56;;;23.65;52.33
47154;BME280;32907;41.412;2.164;2023-05-25T09:59:38;100540.84;;;23.59;52.30
47154;BME280;32907;41.412;2.164;2023-05-25T10:02:06;100513.19;;;23.38;52.78
47154;BME280;32907;41.412;2.164;2023-05-25T10:04:35;100563.63;;;23.68;52.91
47154;BME280;32907;41.412;2.164;2023-05-25T10:07:03;100564.41;;;23.68;52.59
47154;BME280;32907;41.412;2.164;2023-05-25T10:09:37;100563.78;;;23.71;52.68
47154;BME280;32907;41.412;2.164;2023-05-25T10:12:07;100534.50;;;23.50;52.63
47154;BME280;32907;41.412;2.164;2023-05-25T10:14:36;100567.00;;;23.73;52.86
47154;BME280;32907;41.412;2.164;2023-05-25T10:17:05;100567.00;;;23.73;52.22
47154;BME280;32907;41.412;2.164;2023-05-25T10:19:37;100562.66;;;23.72;52.42
47154;BME280;32907;41.412;2.164;2023-05-25T10:22:42;100568.44;;;23.71;52.20
47154;BME280;32907;41.412;2.164;2023-05-25T10:25:26;100566.03;;;23.69;52.14
47154;BME280;32907;41.412;2.164;2023-05-25T10:28:13;100522.22;;;23.38;51.80
47154;BME280;32907;41.412;2.164;2023-05-25T10:30:44;100571.03;;;23.67;51.97
47154;BME280;32907;41.412;2.164;2023-05-25T10:33:12;100510.22;;;23.26;51.98
47154;BME280;32907;41.412;2.164;2023-05-25T10:35:42;100573.56;;;23.64;52.18
47154;BME280;32907;41.412;2.164;2023-05-25T10:38:31;100546.06;;;23.47;51.85
47154;BME280;32907;41.412;2.164;2023-05-25T10:41:01;100509.25;;;23.22;52.01
47154;BME280;32907;41.412;2.164;2023-05-25T10:43:31;100566.88;;;23.56;52.06
47154;BME280;32907;41.412;2.164;2023-05-25T10:46:00;100540.72;;;23.41;52.58
47154;BME280;32907;41.412;2.164;2023-05-25T10:48:35;100561.84;;;23.50;52.14
47154;BME280;32907;41.412;2.164;2023-05-25T10:51:04;100549.63;;;23.47;52.10
47154;BME280;32907;41.412;2.164;2023-05-25T10:53:36;100568.16;;;23.50;52.57
47154;BME280;32907;41.412;2.164;2023-05-25T10:56:05;100569.94;;;23.55;53.01
47154;BME280;32907;41.412;2.164;2023-05-25T10:58:40;100497.06;;;23.05;53.30
47154;BME280;32907;41.412;2.164;2023-05-25T11:01:11;100543.94;;;23.35;53.18
47154;BME280;32907;41.412;2.164;2023-05-25T11:06:15;100560.25;;;23.49;53.20
47154;BME280;32907;41.412;2.164;2023-05-25T11:08:54;100370.72;;;22.19;53.82
47154;BME280;32907;41.412;2.164;2023-05-25T11:14:32;100471.03;;;22.85;54.05
47154;BME280;32907;41.412;2.164;2023-05-25T11:17:08;100316.78;;;21.88;54.13
47154;BME280;32907;41.412;2.164;2023-05-25T11:19:47;100502.66;;;23.00;54.68
47154;BME280;32907;41.412;2.164;2023-05-25T11:22:19;100585.41;;;23.51;55.15
47154;BME280;32907;41.412;2.164;2023-05-25T11:24:48;100595.69;;;23.54;54.40
47154;BME280;32907;41.412;2.164;2023-05-25T11:27:22;100351.47;;;21.88;53.92
47154;BME280;32907;41.412;2.164;2023-05-25T11:29:53;100498.16;;;22.96;54.17
47154;BME280;32907;41.412;2.164;2023-05-25T11:32:24;100441.00;;;22.49;54.41
47154;BME280;32907;41.412;2.164;2023-05-25T11:34:55;100452.19;;;22.61;54.14
47154;BME280;32907;41.412;2.164;2023-05-25T11:37:26;100604.59;;;23.59;54.06
47154;BME280;32907;41.412;2.164;2023-05-25T11:40:06;100448.97;;;22.59;54.13
47154;BME280;32907;41.412;2.164;2023-05-25T11:42:36;100400.06;;;22.13;54.53
47154;BME280;32907;41.412;2.164;2023-05-25T11:45:09;100345.50;;;21.86;54.96
47154;BME280;32907;41.412;2.164;2023-05-25T11:47:38;100384.69;;;22.03;55.80
47154;BME280;32907;41.412;2.164;2023-05-25T11:50:16;100530.97;;;22.96;55.51
47154;BME280;32907;41.412;2.164;2023-05-25T11:52:46;100448.59;;;22.52;55.26
47154;BME280;32907;41.412;2.164;2023-05-25T11:55:15;100474.56;;;22.64;55.23
47154;BME280;32907;41.412;2.164;2023-05-25T11:57:54;100664.81;;;23.59;55.39
47154;BME280;32907;41.412;2.164;2023-05-25T12:00:25;100478.22;;;22.59;55.10
47154;BME280;32907;41.412;2.164;2023-05-25T12:02:57;100609.66;;;23.43;55.20
47154;BME280;32907;41.412;2.164;2023-05-25T12:05:38;100633.22;;;23.53;55.86
47154;BME280;32907;41.412;2.164;2023-05-25T12:08:14;100542.56;;;23.01;55.85
47154;BME280;32907;41.412;2.164;2023-05-25T12:10:50;100448.38;;;22.26;55.90
47154;BME280;32907;41.412;2.164;2023-05-25T12:13:32;100618.34;;;23.45;55.67
47154;BME280;32907;41.412;2.164;2023-05-25T12:16:13;100383.53;;;21.82;55.85
47154;BME280;32907;41.412;2.164;2023-05-25T12:18:47;100362.03;;;21.67;56.00
47154;BME280;32907;41.412;2.164;2023-05-25T12:21:19;100385.25;;;21.92;56.06
47154;BME280;32907;41.412;2.164;2023-05-25T12:24:54;100627.38;;;23.46;56.29
47154;BME280;32907;41.412;2.164;2023-05-25T12:29:05;100625.06;;;23.39;56.67
47154;BME280;32907;41.412;2.164;2023-05-25T12:32:12;100372.63;;;21.82;56.79
47154;BME280;32907;41.412;2.164;2023-05-25T12:34:56;100344.06;;;21.52;56.25
47154;BME280;32907;41.412;2.164;2023-05-25T12:38:31;100383.66;;;21.77;56.88
47154;BME280;32907;41.412;2.164;2023-05-25T12:41:06;100500.50;;;22.52;56.47
47154;BME280;32907;41.412;2.164;2023-05-25T12:44:03;100614.06;;;23.31;56.44
47154;BME280;32907;41.412;2.164;2023-05-25T12:46:44;100413.75;;;21.99;56.15
47154;BME280;32907;41.412;2.164;2023-05-25T12:49:25;100562.16;;;22.95;56.97
47154;BME280;32907;41.412;2.164;2023-05-25T12:52:46;100544.16;;;22.80;56.78
47154;BME280;32907;41.412;2.164;2023-05-25T12:55:28;100629.34;;;23.32;57.22
47154;BME280;32907;41.412;2.164;2023-05-25T13:01:39;100410.22;;;21.85;56.72
47154;BME280;32907;41.412;2.164;2023-05-25T13:04:13;100376.28;;;21.64;56.65
47154;BME280;32907;41.412;2.164;2023-05-25T13:06:56;100442.16;;;21.98;57.06
47154;BME280;32907;41.412;2.164;2023-05-25T13:09:40;100638.63;;;23.22;56.65
47154;BME280;32907;41.412;2.164;2023-05-25T13:12:08;100454.97;;;22.12;56.59
47154;BME280;32907;41.412;2.164;2023-05-25T13:14:58;100487.25;;;22.23;56.84
47154;BME280;32907;41.412;2.164;2023-05-25T13:17:53;100475.78;;;22.21;56.65
47154;BME280;32907;41.412;2.164;2023-05-25T13:20:54;100637.72;;;23.27;56.36
47154;BME280;32907;41.412;2.164;2023-05-25T13:23:36;100523.16;;;22.53;56.56
47154;BME280;32907;41.412;2.164;2023-05-25T13:26:25;100643.19;;;23.27;56.73
47154;BME280;32907;41.412;2.164;2023-05-25T13:29:40;100639.63;;;23.26;56.53
47154;BME280;32907;41.412;2.164;2023-05-25T13:33:17;100456.72;;;21.94;56.65
47154;BME280;32907;41.412;2.164;2023-05-25T13:38:57;100504.63;;;22.27;56.38
47154;BME280;32907;41.412;2.164;2023-05-25T13:44:32;100647.31;;;23.24;56.42
47154;BME280;32907;41.412;2.164;2023-05-25T13:47:01;100519.88;;;22.28;56.22